createdAt,value
2019-05-20T00:00:42.765Z,79.10
2019-05-20T00:03:12.460Z,79.03
2019-05-20T00:05:42.465Z,78.51
2019-05-20T00:08:12.363Z,78.64
2019-05-20T00:10:42.122Z,78.69
2019-05-20T00:13:11.916Z,78.75
2019-05-20T00:15:41.750Z,78.60
2019-05-20T00:18:11.585Z,78.71
2019-05-20T00:20:41.262Z,78.58
2019-05-20T00:23:10.974Z,78.80
2019-05-20T00:25:40.747Z,78.48
2019-05-20T00:28:10.484Z,79.02
2019-05-20T00:30:40.443Z,79.27
2019-05-20T00:33:10.123Z,78.94
2019-05-20T00:35:39.885Z,79.22
2019-05-20T00:38:09.591Z,79.42
2019-05-20T00:40:39.278Z,79.70
2019-05-20T00:43:09.081Z,79.74
2019-05-20T00:45:38.857Z,79.60
2019-05-20T00:48:08.653Z,79.90
2019-05-20T00:50:38.628Z,79.57
2019-05-20T00:53:08.522Z,80.13
2019-05-20T00:55:40.467Z,80.01
2019-05-20T00:58:10.300Z,80.17
2019-05-20T01:00:40.980Z,80.78
2019-05-20T01:03:10.636Z,80.49
2019-05-20T01:05:40.478Z,80.90
2019-05-20T01:08:10.304Z,81.23
2019-05-20T01:10:40.061Z,80.94
2019-05-20T01:13:09.712Z,81.33
2019-05-20T01:15:39.591Z,81.66
2019-05-20T01:18:09.280Z,82.19
2019-05-20T01:20:39.061Z,82.48
2019-05-20T01:23:08.801Z,82.66
2019-05-20T01:25:38.666Z,82.81
2019-05-20T01:28:08.490Z,82.57
2019-05-20T01:30:38.174Z,82.72
2019-05-20T01:33:13.727Z,83.14
2019-05-20T01:35:39.355Z,83.07
2019-05-20T01:38:09.125Z,83.56
2019-05-20T01:40:38.869Z,83.62
2019-05-20T01:43:08.548Z,83.78
2019-05-20T01:45:38.341Z,83.35
2019-05-20T01:48:08.075Z,83.17
2019-05-20T01:50:37.811Z,83.44
2019-05-20T01:53:07.592Z,83.50
2019-05-20T01:55:37.273Z,82.86
2019-05-20T01:58:07.033Z,83.30
2019-05-20T02:00:36.877Z,83.62
2019-05-20T02:03:06.729Z,83.35
2019-05-20T02:05:36.374Z,83.62
2019-05-20T02:08:06.143Z,83.91
2019-05-20T02:10:35.837Z,84.02
2019-05-20T02:13:05.783Z,84.14
2019-05-20T02:15:44.028Z,84.39
2019-05-20T02:18:13.930Z,84.29
2019-05-20T02:20:43.755Z,83.65
2019-05-20T02:23:16.555Z,83.93
2019-05-20T02:25:50.480Z,84.18
2019-05-20T02:28:20.179Z,84.62
2019-05-20T02:30:49.942Z,84.75
2019-05-20T02:33:19.632Z,84.95
2019-05-20T02:35:49.380Z,84.77
2019-05-20T02:38:19.286Z,84.63
2019-05-20T02:40:49.089Z,84.30
2019-05-20T02:43:18.850Z,84.36
2019-05-20T02:45:48.663Z,84.96
2019-05-20T02:48:18.417Z,84.75
2019-05-20T02:50:48.157Z,84.96
2019-05-20T02:53:17.936Z,85.24
2019-05-20T02:55:47.984Z,85.04
2019-05-20T02:58:17.758Z,85.02
2019-05-20T03:00:47.499Z,85.62
2019-05-20T03:03:17.223Z,85.72
2019-05-20T03:05:46.909Z,85.69
2019-05-20T03:08:16.729Z,85.49
2019-05-20T03:10:46.410Z,85.07
2019-05-20T03:13:16.141Z,85.32
2019-05-20T03:15:46.042Z,85.52
2019-05-20T03:18:15.890Z,85.56
2019-05-20T03:20:45.634Z,84.59
2019-05-20T03:23:15.499Z,84.97
2019-05-20T03:25:45.492Z,84.61
2019-05-20T03:28:15.258Z,84.94
2019-05-20T03:30:45.442Z,85.34
2019-05-20T03:33:15.147Z,84.27
2019-05-20T03:35:45.269Z,84.43
2019-05-20T03:38:15.366Z,84.40
2019-05-20T03:40:45.035Z,84.22
2019-05-20T03:43:14.810Z,83.52
2019-05-20T03:45:44.689Z,84.04
2019-05-20T03:48:14.586Z,83.73
2019-05-20T03:50:44.372Z,83.99
2019-05-20T03:53:14.147Z,84.09
2019-05-20T03:55:44.639Z,84.12
2019-05-20T03:58:14.399Z,84.27
2019-05-20T04:00:48.598Z,84.15
2019-05-20T04:03:18.567Z,84.31
2019-05-20T04:05:48.395Z,84.33
2019-05-20T04:08:18.156Z,84.34
2019-05-20T04:10:47.928Z,84.47
2019-05-20T04:13:17.670Z,84.54
2019-05-20T04:15:47.460Z,85.09
2019-05-20T04:18:17.285Z,84.56
2019-05-20T04:20:47.129Z,84.95
2019-05-20T04:23:17.039Z,84.52
2019-05-20T04:25:46.843Z,84.29
2019-05-20T04:28:16.668Z,84.78
2019-05-20T04:30:46.559Z,84.95
2019-05-20T04:33:17.452Z,84.70
2019-05-20T04:35:49.842Z,85.07
2019-05-20T04:38:18.845Z,84.76
2019-05-20T04:40:50.145Z,84.43
2019-05-20T04:43:19.858Z,84.65
2019-05-20T04:45:49.698Z,84.87
2019-05-20T04:48:19.481Z,84.79
2019-05-20T04:50:49.295Z,84.57
2019-05-20T04:53:18.992Z,83.71
2019-05-20T04:55:48.805Z,83.34
2019-05-20T04:58:18.579Z,83.46
2019-05-20T05:00:54.767Z,83.58
2019-05-20T05:03:24.934Z,82.96
2019-05-20T05:05:55.022Z,83.03
2019-05-20T05:08:25.311Z,82.51
2019-05-20T05:10:55.777Z,82.35
2019-05-20T05:13:26.046Z,83.37
2019-05-20T05:15:55.932Z,83.10
2019-05-20T05:18:25.857Z,83.19
2019-05-20T05:20:55.813Z,83.43
2019-05-20T05:23:26.072Z,83.65
2019-05-20T05:25:55.856Z,83.77
2019-05-20T05:28:25.725Z,84.12
2019-05-20T05:30:55.596Z,83.86
2019-05-20T05:33:25.373Z,84.12
2019-05-20T05:35:55.294Z,84.04
2019-05-20T05:38:25.757Z,83.60
2019-05-20T05:40:56.026Z,83.38
2019-05-20T05:43:25.852Z,83.26
2019-05-20T05:45:55.513Z,82.16
2019-05-20T05:48:25.298Z,82.68
2019-05-20T05:50:54.943Z,82.55
2019-05-20T05:53:24.723Z,82.42
2019-05-20T05:55:54.394Z,81.62
2019-05-20T05:58:24.253Z,81.27
2019-05-20T06:00:53.905Z,81.96
2019-05-20T06:03:23.745Z,82.03
2019-05-20T06:06:10.276Z,82.02
2019-05-20T06:08:24.881Z,81.78
2019-05-20T06:10:54.635Z,80.88
2019-05-20T06:13:24.320Z,81.06
2019-05-20T06:15:54.672Z,81.43
2019-05-20T06:18:24.689Z,80.77
2019-05-20T06:20:54.702Z,81.02
2019-05-20T06:23:24.462Z,80.43
2019-05-20T06:25:54.164Z,80.72
2019-05-20T06:28:23.912Z,80.94
2019-05-20T06:30:53.974Z,80.96
2019-05-20T06:33:23.794Z,81.27
2019-05-20T06:35:53.649Z,81.46
2019-05-20T06:38:35.534Z,81.67
2019-05-20T06:41:07.544Z,81.40
2019-05-20T06:43:37.271Z,80.26
2019-05-20T06:46:07.722Z,80.36
2019-05-20T06:48:39.590Z,80.91
2019-05-20T06:51:09.535Z,80.92
2019-05-20T06:53:39.201Z,81.01
2019-05-20T06:56:08.926Z,80.89
2019-05-20T06:58:38.610Z,80.85
2019-05-20T07:01:08.317Z,80.49
2019-05-20T07:03:38.058Z,80.08
2019-05-20T07:06:07.920Z,79.61
2019-05-20T07:08:37.685Z,78.97
2019-05-20T07:11:07.509Z,78.57
2019-05-20T07:13:38.046Z,78.02
2019-05-20T07:16:08.276Z,78.37
2019-05-20T07:18:37.993Z,78.46
2019-05-20T07:21:07.717Z,78.59
2019-05-20T07:23:37.375Z,78.26
2019-05-20T07:26:07.243Z,77.80
2019-05-20T07:28:36.981Z,78.41
2019-05-20T07:31:06.917Z,78.66
2019-05-20T07:33:36.651Z,78.49
2019-05-20T07:36:10.002Z,78.70
2019-05-20T07:38:38.100Z,78.76
2019-05-20T07:41:07.852Z,78.83
2019-05-20T07:43:37.649Z,79.04
2019-05-20T07:46:09.275Z,79.76
2019-05-20T07:48:40.303Z,79.22
2019-05-20T07:51:12.768Z,78.22
2019-05-20T07:53:43.771Z,78.07
2019-05-20T07:56:18.137Z,78.34
2019-05-20T07:58:52.759Z,78.86
2019-05-20T08:01:22.893Z,78.33
2019-05-20T08:03:52.763Z,78.18
2019-05-20T08:06:22.677Z,78.32
2019-05-20T08:08:52.547Z,77.66
2019-05-20T08:11:22.536Z,77.09
2019-05-20T08:13:52.458Z,77.23
2019-05-20T08:16:22.537Z,77.27
2019-05-20T08:18:52.457Z,76.68
2019-05-20T08:21:22.311Z,76.26
2019-05-20T08:23:52.023Z,77.26
2019-05-20T08:26:21.832Z,77.45
2019-05-20T08:28:51.621Z,77.19
2019-05-20T08:31:21.612Z,76.73
2019-05-20T08:33:51.468Z,76.65
2019-05-20T08:36:21.237Z,76.24
2019-05-20T08:38:51.014Z,75.83
2019-05-20T08:41:20.792Z,75.51
2019-05-20T08:43:50.554Z,74.57
2019-05-20T08:46:20.706Z,74.37
2019-05-20T08:48:50.394Z,74.68
2019-05-20T08:51:20.235Z,74.70
2019-05-20T08:53:49.965Z,75.85
2019-05-20T08:56:19.636Z,75.08
2019-05-20T08:58:49.509Z,74.30
2019-05-20T09:01:19.739Z,74.42
2019-05-20T09:03:49.560Z,74.26
2019-05-20T09:06:20.720Z,74.26
2019-05-20T09:08:50.765Z,73.87
2019-05-20T09:11:20.562Z,73.98
2019-05-20T09:13:50.224Z,73.69
2019-05-20T09:16:20.050Z,72.94
2019-05-20T09:18:49.692Z,72.33
2019-05-20T09:21:19.370Z,72.38
2019-05-20T09:23:49.248Z,72.17
2019-05-20T09:26:19.454Z,71.89
2019-05-20T09:28:49.542Z,71.63
2019-05-20T09:31:19.861Z,71.56
2019-05-20T09:33:50.165Z,70.97
2019-05-20T09:36:19.900Z,71.54
2019-05-20T09:38:49.596Z,72.16
2019-05-20T09:41:19.284Z,72.03
2019-05-20T09:43:49.132Z,72.64
2019-05-20T09:46:18.832Z,72.74
2019-05-20T09:48:48.553Z,72.42
2019-05-20T09:51:18.303Z,71.99
2019-05-20T09:53:48.093Z,71.44
2019-05-20T09:56:18.152Z,70.93
2019-05-20T09:58:47.900Z,70.57
2019-05-20T10:01:17.654Z,70.57
2019-05-20T10:03:47.434Z,70.55
2019-05-20T10:06:17.589Z,71.12
2019-05-20T10:08:47.410Z,71.37
2019-05-20T10:11:17.187Z,71.42
2019-05-20T10:13:46.969Z,71.41
2019-05-20T10:16:16.781Z,71.41
2019-05-20T10:18:46.505Z,71.65
2019-05-20T10:21:16.291Z,71.84
2019-05-20T10:23:45.965Z,71.39
2019-05-20T10:26:16.037Z,71.84
2019-05-20T10:28:47.415Z,72.05
2019-05-20T10:31:17.778Z,71.99
2019-05-20T10:33:47.536Z,72.28
2019-05-20T10:36:18.905Z,71.98
2019-05-20T10:38:58.490Z,71.72
2019-05-20T10:41:20.675Z,71.46
2019-05-20T10:43:50.393Z,71.72
2019-05-20T10:46:20.129Z,71.71
2019-05-20T10:48:49.981Z,71.50
2019-05-20T10:51:19.720Z,71.82
2019-05-20T10:53:49.474Z,72.23
2019-05-20T10:56:19.151Z,72.24
2019-05-20T10:58:48.867Z,72.04
2019-05-20T11:01:18.866Z,71.80
2019-05-20T11:03:48.628Z,72.18
2019-05-20T11:06:18.380Z,72.00
2019-05-20T11:08:48.152Z,71.98
2019-05-20T11:11:17.901Z,71.12
2019-05-20T11:13:47.644Z,71.19
2019-05-20T11:16:17.471Z,71.82
2019-05-20T11:18:47.154Z,71.59
2019-05-20T11:21:16.914Z,71.33
2019-05-20T11:23:46.742Z,71.36
2019-05-20T11:26:16.551Z,72.37
2019-05-20T11:28:47.242Z,72.36
2019-05-20T11:31:16.966Z,71.72
2019-05-20T11:33:46.640Z,71.83
2019-05-20T11:36:16.465Z,71.64
2019-05-20T11:38:46.434Z,71.67
2019-05-20T11:41:16.132Z,71.72
2019-05-20T11:43:45.933Z,71.53
2019-05-20T11:46:15.896Z,71.44
2019-05-20T11:48:45.880Z,71.01
2019-05-20T11:51:15.535Z,71.23
2019-05-20T11:53:45.335Z,71.21
2019-05-20T11:56:15.085Z,71.11
2019-05-20T11:58:44.924Z,70.61
2019-05-20T12:01:16.068Z,70.61
2019-05-20T12:03:45.939Z,70.81
2019-05-20T12:06:15.667Z,70.82
2019-05-20T12:08:45.694Z,70.73
2019-05-20T12:11:15.394Z,70.74
2019-05-20T12:13:45.173Z,70.84
2019-05-20T12:16:14.867Z,70.49
2019-05-20T12:18:45.210Z,70.56
2019-05-20T12:21:15.014Z,70.60
2019-05-20T12:23:44.703Z,70.52
2019-05-20T12:26:14.447Z,70.67
2019-05-20T12:28:44.337Z,70.34
2019-05-20T12:31:14.153Z,70.07
2019-05-20T12:33:44.787Z,70.24
2019-05-20T12:36:14.588Z,70.51
2019-05-20T12:38:44.362Z,70.26
2019-05-20T12:41:14.086Z,70.09
2019-05-20T12:43:44.843Z,69.62
2019-05-20T12:46:15.032Z,69.53
2019-05-20T12:48:44.759Z,69.97
2019-05-20T12:51:14.896Z,69.75
2019-05-20T12:53:44.940Z,70.24
2019-05-20T12:56:14.652Z,70.46
2019-05-20T12:58:44.360Z,70.51
2019-05-20T13:01:14.050Z,70.26
2019-05-20T13:03:43.740Z,69.81
2019-05-20T13:06:13.484Z,70.10
2019-05-20T13:08:43.377Z,70.14
2019-05-20T13:11:13.149Z,69.98
2019-05-20T13:13:42.824Z,69.61
2019-05-20T13:16:12.607Z,69.55
2019-05-20T13:18:55.050Z,69.37
2019-05-20T13:21:13.790Z,68.92
2019-05-20T13:23:43.553Z,68.96
2019-05-20T13:26:13.391Z,68.99
2019-05-20T13:28:43.246Z,68.87
2019-05-20T13:31:13.004Z,68.94
2019-05-20T13:33:42.893Z,68.72
2019-05-20T13:36:12.620Z,68.59
2019-05-20T13:38:42.470Z,68.73
2019-05-20T13:41:12.397Z,68.56
2019-05-20T13:43:42.070Z,68.04
2019-05-20T13:46:11.806Z,67.59
2019-05-20T13:48:41.653Z,68.12
2019-05-20T13:51:11.403Z,68.31
2019-05-20T13:53:41.146Z,68.85
2019-05-20T13:56:10.844Z,69.11
2019-05-20T13:58:40.574Z,68.96
2019-05-20T14:01:10.310Z,68.75
2019-05-20T14:03:41.157Z,68.57
2019-05-20T14:06:10.961Z,68.83
2019-05-20T14:08:40.859Z,68.76
2019-05-20T14:11:10.590Z,68.87
2019-05-20T14:13:40.442Z,68.95
2019-05-20T14:16:10.194Z,68.99
2019-05-20T14:18:39.927Z,68.63
2019-05-20T14:21:09.662Z,68.51
2019-05-20T14:23:39.381Z,68.20
2019-05-20T14:26:09.095Z,68.65
2019-05-20T14:28:38.842Z,68.39
2019-05-20T14:31:08.886Z,69.28
2019-05-20T14:33:38.546Z,69.28
2019-05-20T14:36:08.317Z,69.00
2019-05-20T14:38:38.226Z,69.16
2019-05-20T14:41:20.961Z,69.29
2019-05-20T14:43:39.775Z,69.29
2019-05-20T14:46:09.552Z,69.50
2019-05-20T14:48:39.278Z,69.89
2019-05-20T14:51:09.033Z,70.47
2019-05-20T14:53:38.859Z,70.94
2019-05-20T14:56:08.631Z,71.07
2019-05-20T14:58:38.362Z,71.27
2019-05-20T15:01:08.028Z,71.30
2019-05-20T15:03:37.828Z,71.56
2019-05-20T15:06:07.784Z,71.85
2019-05-20T15:08:37.472Z,71.84
2019-05-20T15:11:07.490Z,71.60
2019-05-20T15:13:37.455Z,71.90
2019-05-20T15:16:07.242Z,71.38
2019-05-20T15:18:37.000Z,71.39
2019-05-20T15:21:06.853Z,72.23
2019-05-20T15:23:36.758Z,72.26
2019-05-20T15:26:06.804Z,72.12
2019-05-20T15:28:36.799Z,71.80
2019-05-20T15:31:06.571Z,71.54
2019-05-20T15:33:36.358Z,71.42
2019-05-20T15:36:06.464Z,70.71
2019-05-20T15:38:36.329Z,70.22
2019-05-20T15:41:06.277Z,69.66
2019-05-20T15:43:35.938Z,69.23
2019-05-20T15:46:05.790Z,69.12
2019-05-20T15:48:35.585Z,69.09
2019-05-20T15:51:05.508Z,69.12
2019-05-20T15:53:35.254Z,69.68
2019-05-20T15:56:05.059Z,70.14
2019-05-20T15:58:34.853Z,70.50
2019-05-20T16:01:04.719Z,70.50
2019-05-20T16:03:34.626Z,70.85
2019-05-20T16:06:04.705Z,71.23
2019-05-20T16:08:34.624Z,71.67
2019-05-20T16:11:06.890Z,71.43
2019-05-20T16:13:35.802Z,71.53
2019-05-20T16:16:06.287Z,71.84
2019-05-20T16:18:36.127Z,72.03
2019-05-20T16:21:06.213Z,71.81
2019-05-20T16:23:36.761Z,72.06
2019-05-20T16:26:06.716Z,72.23
2019-05-20T16:28:36.497Z,72.41
2019-05-20T16:31:07.348Z,72.87
2019-05-20T16:33:37.196Z,72.81
2019-05-20T16:36:07.085Z,72.83
2019-05-20T16:38:36.843Z,73.22
2019-05-20T16:41:06.695Z,73.25
2019-05-20T16:43:36.369Z,73.25
2019-05-20T16:46:06.253Z,73.09
2019-05-20T16:48:36.071Z,72.87
2019-05-20T16:51:05.979Z,72.51
2019-05-20T16:53:35.702Z,71.97
2019-05-20T16:56:05.631Z,71.15
2019-05-20T16:58:35.462Z,70.46
2019-05-20T17:01:06.173Z,70.16
2019-05-20T17:03:36.019Z,70.34
2019-05-20T17:06:06.024Z,70.44
2019-05-20T17:08:36.006Z,71.43
2019-05-20T17:11:05.827Z,71.96
2019-05-20T17:13:35.634Z,72.66
2019-05-20T17:16:05.540Z,73.01
2019-05-20T17:18:35.477Z,73.17
2019-05-20T17:21:05.298Z,73.55
2019-05-20T17:23:34.971Z,73.64
2019-05-20T17:26:04.971Z,73.56
2019-05-20T17:28:34.774Z,73.83
2019-05-20T17:31:04.716Z,73.72
2019-05-20T17:33:34.387Z,73.97
2019-05-20T17:36:04.231Z,73.98
2019-05-20T17:38:34.060Z,74.13
2019-05-20T17:41:03.995Z,74.14
2019-05-20T17:43:33.765Z,74.47
2019-05-20T17:46:03.681Z,74.49
2019-05-20T17:48:33.495Z,74.65
2019-05-20T17:51:03.332Z,74.69
2019-05-20T17:53:33.108Z,74.78
2019-05-20T17:56:02.942Z,74.50
2019-05-20T17:58:32.631Z,74.16
2019-05-20T18:01:14.784Z,74.28
2019-05-20T18:03:33.857Z,74.37
2019-05-20T18:06:03.814Z,74.58
2019-05-20T18:08:35.213Z,74.95
2019-05-20T18:11:05.006Z,74.29
2019-05-20T18:13:34.799Z,74.21
2019-05-20T18:16:04.673Z,74.46
2019-05-20T18:18:34.402Z,74.63
2019-05-20T18:21:04.219Z,75.01
2019-05-20T18:23:33.914Z,74.40
2019-05-20T18:26:03.894Z,74.26
2019-05-20T18:28:33.703Z,74.95
2019-05-20T18:31:03.598Z,75.19
2019-05-20T18:33:33.490Z,74.93
2019-05-20T18:36:03.452Z,74.89
2019-05-20T18:38:33.116Z,74.80
2019-05-20T18:41:02.868Z,74.91
2019-05-20T18:43:32.650Z,75.08
2019-05-20T18:46:02.460Z,75.08
2019-05-20T18:48:32.340Z,75.37
2019-05-20T18:51:02.037Z,75.49
2019-05-20T18:53:31.723Z,75.28
2019-05-20T18:56:03.193Z,75.22
2019-05-20T18:58:33.008Z,75.49
2019-05-20T19:01:02.789Z,75.63
2019-05-20T19:03:33.486Z,75.82
2019-05-20T19:06:03.878Z,75.99
2019-05-20T19:08:34.250Z,76.17
2019-05-20T19:11:04.179Z,76.43
2019-05-20T19:13:33.980Z,76.72
2019-05-20T19:16:03.881Z,76.92
2019-05-20T19:18:33.719Z,77.10
2019-05-20T19:21:03.564Z,77.27
2019-05-20T19:23:33.545Z,76.70
2019-05-20T19:26:03.340Z,77.00
2019-05-20T19:28:33.223Z,77.45
2019-05-20T19:31:03.121Z,77.46
2019-05-20T19:33:32.881Z,77.63
2019-05-20T19:36:02.681Z,77.65
2019-05-20T19:38:34.910Z,77.65
2019-05-20T19:41:04.006Z,77.79
2019-05-20T19:43:33.719Z,77.94
2019-05-20T19:46:03.603Z,78.03
2019-05-20T19:48:33.367Z,77.79
2019-05-20T19:51:03.371Z,78.00
2019-05-20T19:53:33.146Z,77.81
2019-05-20T19:56:02.825Z,77.88
2019-05-20T19:58:32.586Z,78.29
2019-05-20T20:01:02.282Z,78.17
2019-05-20T20:03:32.143Z,78.25
2019-05-20T20:06:01.813Z,78.05
2019-05-20T20:08:31.629Z,78.13
2019-05-20T20:11:01.293Z,78.25
2019-05-20T20:13:33.984Z,78.07
2019-05-20T20:16:02.401Z,78.18
2019-05-20T20:18:32.568Z,78.48
2019-05-20T20:21:02.388Z,78.43
2019-05-20T20:23:32.282Z,78.63
2019-05-20T20:26:02.225Z,78.73
2019-05-20T20:28:32.018Z,78.62
2019-05-20T20:31:01.853Z,78.78
2019-05-20T20:33:31.687Z,78.83
2019-05-20T20:36:01.632Z,79.06
2019-05-20T20:38:31.521Z,79.36
2019-05-20T20:41:01.308Z,79.28
2019-05-20T20:43:32.248Z,79.45
2019-05-20T20:46:02.907Z,79.12
2019-05-20T20:48:32.666Z,79.27
2019-05-20T20:51:02.388Z,79.14
2019-05-20T20:53:32.170Z,79.33
2019-05-20T20:56:02.006Z,79.31
2019-05-20T20:58:31.912Z,79.61
2019-05-20T21:01:01.568Z,79.54
2019-05-20T21:03:31.275Z,79.48
2019-05-20T21:06:00.957Z,79.40
2019-05-20T21:08:30.677Z,79.16
2019-05-20T21:11:00.951Z,78.93
2019-05-20T21:13:30.660Z,79.30
2019-05-20T21:16:00.377Z,79.68
2019-05-20T21:18:30.146Z,79.81
2019-05-20T21:20:59.822Z,80.01
2019-05-20T21:23:29.827Z,80.50
2019-05-20T21:25:59.580Z,80.73
2019-05-20T21:28:29.548Z,81.17
2019-05-20T21:30:59.335Z,81.36
2019-05-20T21:33:29.025Z,81.40
2019-05-20T21:35:58.806Z,81.21
2019-05-20T21:38:28.466Z,81.21
2019-05-20T21:40:58.511Z,80.82
2019-05-20T21:43:28.184Z,81.25
2019-05-20T21:45:57.902Z,80.43
2019-05-20T21:48:27.694Z,80.69
2019-05-20T21:50:57.525Z,80.68
2019-05-20T21:53:27.331Z,80.48
2019-05-20T21:55:57.257Z,80.31
2019-05-20T21:58:27.242Z,80.48
2019-05-20T22:00:58.786Z,80.50
2019-05-20T22:03:28.745Z,80.74
2019-05-20T22:05:58.804Z,80.93
2019-05-20T22:08:28.604Z,80.71
2019-05-20T22:10:58.368Z,80.60
2019-05-20T22:13:28.257Z,81.09
2019-05-20T22:15:57.916Z,81.36
2019-05-20T22:18:27.629Z,81.55
2019-05-20T22:20:57.308Z,81.35
2019-05-20T22:23:28.723Z,81.24
2019-05-20T22:25:58.376Z,81.96
2019-05-20T22:28:28.100Z,82.67
2019-05-20T22:30:57.858Z,82.88
2019-05-20T22:33:40.491Z,83.44
2019-05-20T22:35:58.992Z,83.86
2019-05-20T22:38:29.813Z,83.84
2019-05-20T22:40:59.642Z,83.80
2019-05-20T22:43:29.453Z,84.93
2019-05-20T22:45:59.362Z,85.42
2019-05-20T22:48:29.131Z,85.73
2019-05-20T22:50:58.819Z,86.14
2019-05-20T22:53:28.593Z,86.33
2019-05-20T22:55:59.309Z,86.18
2019-05-20T22:58:29.011Z,86.27
2019-05-20T23:00:58.717Z,86.75
2019-05-20T23:03:28.853Z,87.09
2019-05-20T23:05:58.686Z,86.25
2019-05-20T23:08:29.069Z,86.54
2019-05-20T23:10:58.805Z,86.36
2019-05-20T23:13:28.637Z,86.54
2019-05-20T23:15:58.356Z,86.69
2019-05-20T23:18:28.230Z,86.75
2019-05-20T23:20:57.985Z,86.96
2019-05-20T23:23:27.674Z,87.13
2019-05-20T23:25:57.504Z,87.21
2019-05-20T23:28:27.218Z,87.55
2019-05-20T23:30:56.916Z,88.57
2019-05-20T23:33:26.779Z,89.35
2019-05-20T23:35:56.456Z,89.16
2019-05-20T23:38:27.477Z,88.58
2019-05-20T23:40:57.185Z,88.89
2019-05-20T23:43:26.866Z,89.24
2019-05-20T23:45:57.523Z,89.44
2019-05-20T23:48:27.244Z,89.69
2019-05-20T23:50:56.948Z,89.71
2019-05-20T23:53:26.702Z,89.52
2019-05-20T23:55:56.498Z,90.13
2019-05-20T23:58:26.320Z,90.11
